createdAt,value
2022-10-11T00:01:53.086Z,65.54
2022-10-11T00:54:15.935Z,67.60
2022-10-11T00:59:37.462Z,67.32
2022-10-11T01:02:05.022Z,67.15
2022-10-11T01:04:31.821Z,67.25
2022-10-11T01:06:59.551Z,67.07
2022-10-11T01:09:28.310Z,67.09
2022-10-11T01:11:58.901Z,67.12
2022-10-11T01:14:59.407Z,67.22
2022-10-11T01:24:08.354Z,67.34
2022-10-11T01:27:31.913Z,67.36
2022-10-11T01:30:08.856Z,67.63
2022-10-11T01:32:44.077Z,67.74
2022-10-11T01:35:17.555Z,67.58
2022-10-11T01:37:48.866Z,67.82
2022-10-11T01:43:04.803Z,67.69
2022-10-11T01:45:33.718Z,67.66
2022-10-11T01:48:08.653Z,67.68
2022-10-11T01:50:41.000Z,67.72
2022-10-11T01:53:22.824Z,67.74
2022-10-11T01:55:55.221Z,67.98
2022-10-11T01:58:38.313Z,68.02
2022-10-11T02:01:16.243Z,67.72
2022-10-11T02:03:52.737Z,67.35
2022-10-11T02:06:32.036Z,67.35
2022-10-11T02:09:08.197Z,67.40
2022-10-11T02:11:36.501Z,67.37
2022-10-11T02:14:09.827Z,67.25
2022-10-11T02:16:41.703Z,67.54
2022-10-11T02:19:12.899Z,67.47
2022-10-11T02:21:43.979Z,67.59
2022-10-11T02:24:20.460Z,67.52
2022-10-11T06:57:47.560Z,64.36
2022-10-11T07:06:41.180Z,64.34
2022-10-11T07:09:08.702Z,64.41
2022-10-11T07:11:36.146Z,64.76
2022-10-11T07:14:07.922Z,65.05
2022-10-11T07:16:36.212Z,65.20
2022-10-11T07:19:04.524Z,65.71
2022-10-11T07:21:33.571Z,65.43
2022-10-11T07:24:05.545Z,65.36
2022-10-11T07:26:38.520Z,65.66
2022-10-11T07:29:06.459Z,65.68
2022-10-11T07:31:33.443Z,65.98
2022-10-11T07:34:00.330Z,65.86
2022-10-11T07:36:27.109Z,65.40
2022-10-11T07:38:54.359Z,65.30
2022-10-11T07:41:22.571Z,65.65
2022-10-11T07:43:49.985Z,65.11
2022-10-11T07:46:17.484Z,64.91
2022-10-11T07:48:44.539Z,64.76
2022-10-11T07:51:13.931Z,64.63
2022-10-11T07:53:44.769Z,64.89
2022-10-11T07:56:14.133Z,64.95
2022-10-11T07:58:43.141Z,64.40
2022-10-11T08:01:12.324Z,64.06
2022-10-11T08:03:39.042Z,64.61
2022-10-11T08:06:09.177Z,64.56
2022-10-11T08:08:37.219Z,64.44
2022-10-11T08:11:04.554Z,64.10
2022-10-11T08:13:32.942Z,64.04
2022-10-11T08:16:01.814Z,63.72
2022-10-11T08:18:28.726Z,63.93
2022-10-11T08:20:55.413Z,63.90
2022-10-11T08:23:22.056Z,64.19
2022-10-11T08:25:48.737Z,64.28
2022-10-11T08:28:17.965Z,64.12
2022-10-11T08:30:48.809Z,64.38
2022-10-11T08:33:17.783Z,63.99
2022-10-11T08:35:44.543Z,64.01
2022-10-11T08:38:11.675Z,63.47
2022-10-11T08:40:38.575Z,63.43
2022-10-11T08:43:11.895Z,63.53
2022-10-11T08:45:44.146Z,63.97
2022-10-11T08:48:15.957Z,64.53
2022-10-11T08:50:47.511Z,64.54
2022-10-11T08:53:22.381Z,64.64
2022-10-11T08:55:51.445Z,64.42
2022-10-11T08:58:22.684Z,64.53
2022-10-11T09:00:53.297Z,64.11
2022-10-11T09:03:27.438Z,63.51
2022-10-11T09:06:07.706Z,63.40
2022-10-11T09:08:50.051Z,64.05
2022-10-11T09:11:25.707Z,63.90
2022-10-11T09:14:17.738Z,64.77
2022-10-11T09:16:59.013Z,64.40
2022-10-11T09:20:15.593Z,64.67
2022-10-11T09:25:43.654Z,64.20
2022-10-11T09:28:22.316Z,64.16
2022-10-11T09:30:53.520Z,64.46
2022-10-11T09:39:23.074Z,64.16
2022-10-11T09:41:56.754Z,63.67
2022-10-11T09:44:25.887Z,63.65
2022-10-11T11:34:31.650Z,55.30
2022-10-11T13:58:40.960Z,55.66
2022-10-11T19:43:19.584Z,60.79
